Time;durP1;ratioP1;P1;durP2;ratioP2;P2;SDS_P1;SDS_P2;PMS_P1;PMS_P2;Temp;Humidity;BMP_temperature;BMP_pressure;BME280_temperature;BME280_humidity;BME280_pressure;Samples;Min_cycle;Max_cycle;Signal;HPM_P1;HPM_P2
2023/08/19 00:05:40;;;;;;;11.90;11.07;;;;;;;;;;5084827;28;20771;-92
2023/08/19 00:08:06;;;;;;;12.20;11.07;;;;;;;;;;5105901;28;20421;-90
2023/08/19 00:10:34;;;;;;;12.60;11.60;;;;;;;;;;5102908;28;20458;-88
2023/08/19 00:13:00;;;;;;;12.13;11.17;;;;;;;;;;5103912;28;20435;-90
2023/08/19 00:15:26;;;;;;;12.00;11.00;;;;;;;;;;5086951;28;20460;-91
2023/08/19 00:17:52;;;;;;;11.60;10.97;;;;;;;;;;5092018;28;20523;-89
2023/08/19 00:20:18;;;;;;;12.70;11.70;;;;;;;;;;5084014;28;20471;-92
2023/08/19 00:22:44;;;;;;;10.90;10.10;;;;;;;;;;5080671;28;20435;-90
2023/08/19 00:25:10;;;;;;;12.07;11.27;;;;;;;;;;5074759;28;20432;-91
2023/08/19 00:27:36;;;;;;;11.57;10.67;;;;;;;;;;5080413;28;20425;-89
2023/08/19 00:30:03;;;;;;;11.50;10.63;;;;;;;;;;5080728;28;20419;-91
2023/08/19 00:32:29;;;;;;;11.20;10.60;;;;;;;;;;5073771;28;20440;-91
2023/08/19 00:34:55;;;;;;;11.27;10.60;;;;;;;;;;5084469;28;20997;-90
2023/08/19 00:37:23;;;;;;;13.07;11.97;;;;;;;;;;5085934;28;20397;-92
2023/08/19 00:40:18;;;;;;;12.20;11.10;;;;;;;;;;5085759;28;20521;-94
2023/08/19 00:42:55;;;;;;;11.07;10.20;;;;;;;;;;5091908;28;20404;-94
2023/08/19 00:45:24;;;;;;;10.93;10.17;;;;;;;;;;5082896;28;20436;-94
2023/08/19 00:47:50;;;;;;;12.10;11.20;;;;;;;;;;5102341;28;20427;-95
2023/08/19 00:53:35;;;;;;;11.20;10.17;;;;;;;;;;5084968;28;20400;-94
2023/08/19 00:56:12;;;;;;;;;;;;;;;;;;;;;
2023/08/19 00:58:58;;;;;;;12.00;10.70;;;;;;;;;;5094311;28;20449;-95
2023/08/19 01:01:27;;;;;;;10.77;10.10;;;;;;;;;;5077501;28;20935;-94
2023/08/19 01:04:11;;;;;;;10.40;9.70;;;;;;;;;;5083764;28;20445;-96
2023/08/19 01:07:41;;;;;;;11.03;9.97;;;;;;;;;;5089934;28;20412;-96
2023/08/19 01:10:35;;;;;;;11.30;10.40;;;;;;;;;;5065263;28;20524;-96
2023/08/19 01:16:58;;;;;;;11.50;10.73;;;;;;;;;;5071575;28;20480;-95
2023/08/19 01:23:00;;;;;;;11.27;10.37;;;;;;;;;;5037699;28;20409;-94
2023/08/19 01:25:35;;;;;;;10.67;10.10;;;;;;;;;;5064617;28;20441;-93
2023/08/19 01:28:28;;;;;;;12.03;11.00;;;;;;;;;;5056033;28;20441;-94
2023/08/19 01:31:03;;;;;;;;;;;;;;;;;;;;;
2023/08/19 01:36:34;;;;;;;10.83;10.13;;;;;;;;;;5044697;28;20564;-95
2023/08/19 01:39:08;;;;;;;10.57;10.07;;;;;;;;;;5068296;28;20777;-94
2023/08/19 01:41:52;;;;;;;10.97;10.07;;;;;;;;;;5080903;28;20476;-95
2023/08/19 01:44:27;;;;;;;11.17;9.77;;;;;;;;;;5077347;28;20429;-95
2023/08/19 01:47:16;;;;;;;10.67;9.90;;;;;;;;;;5083354;28;20417;-95
2023/08/19 01:50:04;;;;;;;;;;;;;;;;;;;;;
2023/08/19 01:52:47;;;;;;;11.80;10.73;;;;;;;;;;5076901;28;20424;-95
2023/08/19 01:58:28;;;;;;;11.43;10.23;;;;;;;;;;5069208;28;20409;-95
2023/08/19 02:01:09;;;;;;;;;;;;;;;;;;;;;
2023/08/19 02:03:40;;;;;;;11.70;10.40;;;;;;;;;;5052227;28;20414;-96
2023/08/19 02:06:19;;;;;;;11.23;10.30;;;;;;;;;;5031345;28;20426;-94
2023/08/19 02:08:53;;;;;;;11.20;10.30;;;;;;;;;;5048352;28;20433;-94
2023/08/19 02:11:30;;;;;;;11.40;10.43;;;;;;;;;;5046222;28;20421;-96
2023/08/19 02:13:59;;;;;;;11.47;10.47;;;;;;;;;;5050533;28;20654;-88
2023/08/19 02:16:45;;;;;;;11.70;10.80;;;;;;;;;;5033686;28;20470;-95
2023/08/19 02:19:11;;;;;;;10.80;10.03;;;;;;;;;;5030977;28;20434;-96
2023/08/19 02:21:39;;;;;;;11.50;10.60;;;;;;;;;;5065578;28;20453;-95
2023/08/19 02:24:06;;;;;;;17.60;10.17;;;;;;;;;;5050328;28;20432;-96
2023/08/19 02:26:34;;;;;;;11.63;10.27;;;;;;;;;;5050467;28;20469;-96
2023/08/19 02:29:06;;;;;;;10.43;9.60;;;;;;;;;;5036879;28;20453;-96
2023/08/19 02:31:45;;;;;;;;;;;;;;;;;;;;;
2023/08/19 02:34:19;;;;;;;10.23;9.43;;;;;;;;;;5033878;28;20411;-95
2023/08/19 02:36:48;;;;;;;10.80;9.90;;;;;;;;;;5046561;28;20452;-96
2023/08/19 02:39:20;;;;;;;12.00;10.97;;;;;;;;;;5050383;28;20511;-95
2023/08/19 02:41:56;;;;;;;10.10;9.50;;;;;;;;;;5042024;28;20430;-96
2023/08/19 02:44:25;;;;;;;9.63;8.93;;;;;;;;;;5037389;28;20426;-95
2023/08/19 02:46:58;;;;;;;9.90;9.10;;;;;;;;;;5053823;28;20436;-95
2023/08/19 02:49:39;;;;;;;10.50;9.50;;;;;;;;;;5053550;28;20434;-96
2023/08/19 02:52:08;;;;;;;9.20;8.77;;;;;;;;;;5061065;28;20429;-95
2023/08/19 02:54:57;;;;;;;16.00;9.10;;;;;;;;;;5074423;28;20457;-95
2023/08/19 03:00:15;;;;;;;10.23;9.23;;;;;;;;;;5051838;28;20424;-96
2023/08/19 03:02:55;;;;;;;;;;;;;;;;;;;;;
2023/08/19 03:05:22;;;;;;;9.30;8.40;;;;;;;;;;5057320;28;20524;-95
2023/08/19 03:08:09;;;;;;;9.93;8.90;;;;;;;;;;5078684;28;20992;-94
2023/08/19 03:10:56;;;;;;;9.63;8.70;;;;;;;;;;5071096;28;20452;-96
2023/08/19 03:13:40;;;;;;;9.87;8.90;;;;;;;;;;5075192;28;20443;-93
2023/08/19 03:16:14;;;;;;;9.00;8.40;;;;;;;;;;5061353;28;20465;-94
2023/08/19 03:18:46;;;;;;;9.53;8.73;;;;;;;;;;5063264;28;20409;-95
2023/08/19 03:21:15;;;;;;;10.00;9.07;;;;;;;;;;5080324;28;20434;-96
2023/08/19 03:23:41;;;;;;;9.20;8.50;;;;;;;;;;5090769;28;20532;-96
2023/08/19 03:26:07;;;;;;;9.90;8.37;;;;;;;;;;5095937;28;20437;-96
2023/08/19 03:28:39;;;;;;;8.30;7.63;;;;;;;;;;5115471;28;20494;-95
2023/08/19 03:31:19;;;;;;;10.53;7.93;;;;;;;;;;5083237;28;20428;-96
2023/08/19 03:33:54;;;;;;;9.47;8.53;;;;;;;;;;5105354;28;20440;-95
2023/08/19 03:36:32;;;;;;;7.57;6.97;;;;;;;;;;5089806;28;20469;-96
2023/08/19 03:39:03;;;;;;;8.50;7.67;;;;;;;;;;5073962;28;20433;-96
2023/08/19 03:41:29;;;;;;;8.60;7.97;;;;;;;;;;5070158;28;20456;-95
2023/08/19 03:43:55;;;;;;;9.80;8.90;;;;;;;;;;5091313;28;20424;-95
2023/08/19 03:46:24;;;;;;;8.63;7.80;;;;;;;;;;5102225;28;20517;-96
2023/08/19 03:48:50;;;;;;;7.77;7.03;;;;;;;;;;5110830;28;20453;-96
2023/08/19 03:51:40;;;;;;;8.00;7.50;;;;;;;;;;5096737;28;20437;-96
2023/08/19 03:54:17;;;;;;;8.00;7.40;;;;;;;;;;5083887;28;20433;-94
2023/08/19 03:56:49;;;;;;;7.87;7.37;;;;;;;;;;5101543;28;20527;-94
2023/08/19 03:59:17;;;;;;;8.93;8.33;;;;;;;;;;5077490;28;20429;-94
2023/08/19 04:02:01;;;;;;;9.37;8.77;;;;;;;;;;5085111;28;20449;-93
2023/08/19 04:04:37;;;;;;;8.40;7.73;;;;;;;;;;5082417;28;20461;-93
2023/08/19 04:10:47;;;;;;;;;;;;;;;;;;;;;
2023/08/19 04:13:17;;;;;;;8.50;7.63;;;;;;;;;;5068457;28;20433;-95
2023/08/19 04:15:43;;;;;;;7.87;7.37;;;;;;;;;;5087248;28;20975;-95
2023/08/19 04:18:17;;;;;;;8.27;7.60;;;;;;;;;;5098399;28;20510;-94
2023/08/19 04:20:49;;;;;;;7.63;7.10;;;;;;;;;;5080062;28;20437;-95
2023/08/19 04:23:15;;;;;;;9.27;8.37;;;;;;;;;;5063798;28;20444;-96
2023/08/19 04:29:08;;;;;;;7.73;7.40;;;;;;;;;;5051149;28;20548;-96
2023/08/19 04:32:31;;;;;;;9.33;8.60;;;;;;;;;;5058752;28;20474;-95
2023/08/19 04:35:18;;;;;;;7.70;7.40;;;;;;;;;;5066671;28;20460;-96
2023/08/19 04:37:59;;;;;;;8.20;7.67;;;;;;;;;;5078538;28;20420;-95
2023/08/19 04:40:37;;;;;;;8.23;7.70;;;;;;;;;;5065768;28;20424;-96
2023/08/19 04:43:29;;;;;;;7.77;7.10;;;;;;;;;;5086957;28;20504;-96
2023/08/19 04:46:36;;;;;;;8.30;7.50;;;;;;;;;;5067545;28;21016;-96
2023/08/19 04:49:01;;;;;;;7.17;6.87;;;;;;;;;;5049025;22;20490;-82
2023/08/19 04:51:27;;;;;;;7.43;6.80;;;;;;;;;;5044090;28;20430;-83
2023/08/19 04:53:53;;;;;;;7.37;6.90;;;;;;;;;;5044156;28;20429;-82
2023/08/19 04:56:19;;;;;;;8.33;6.77;;;;;;;;;;5044763;28;20789;-84
2023/08/19 04:58:45;;;;;;;6.00;5.50;;;;;;;;;;5044181;28;20903;-83
2023/08/19 05:01:11;;;;;;;12.43;8.33;;;;;;;;;;5044324;28;20464;-84
2023/08/19 05:03:37;;;;;;;7.70;7.20;;;;;;;;;;5044321;28;20445;-84
2023/08/19 05:06:03;;;;;;;7.27;6.67;;;;;;;;;;5044064;28;20438;-83
2023/08/19 05:08:29;;;;;;;8.93;7.17;;;;;;;;;;5045064;28;20657;-82
2023/08/19 05:10:55;;;;;;;7.07;6.60;;;;;;;;;;5039852;28;20552;-83
2023/08/19 05:13:21;;;;;;;7.03;6.43;;;;;;;;;;5043742;28;20936;-84
2023/08/19 05:15:47;;;;;;;6.73;6.33;;;;;;;;;;5033780;28;20462;-84
2023/08/19 05:18:13;;;;;;;7.43;6.00;;;;;;;;;;5028991;28;20437;-83
2023/08/19 05:20:39;;;;;;;6.30;5.90;;;;;;;;;;5044362;28;20421;-83
2023/08/19 05:23:05;;;;;;;6.03;5.73;;;;;;;;;;5043952;28;20430;-83
2023/08/19 05:25:31;;;;;;;6.23;5.93;;;;;;;;;;5044710;28;20424;-82
2023/08/19 05:27:57;;;;;;;6.73;6.10;;;;;;;;;;5043579;28;20940;-82
2023/08/19 05:30:23;;;;;;;6.90;6.60;;;;;;;;;;5044399;28;20436;-82
2023/08/19 05:32:50;;;;;;;5.07;4.77;;;;;;;;;;5043398;28;20433;-82
2023/08/19 05:35:16;;;;;;;5.00;4.60;;;;;;;;;;5043992;28;20441;-82
2023/08/19 05:37:42;;;;;;;5.73;5.33;;;;;;;;;;5043251;28;20491;-83
2023/08/19 05:40:08;;;;;;;5.70;5.47;;;;;;;;;;5043862;28;20445;-81
2023/08/19 05:42:34;;;;;;;5.97;5.63;;;;;;;;;;5040644;28;20441;-82
2023/08/19 05:45:00;;;;;;;6.67;6.07;;;;;;;;;;5042424;28;20427;-83
2023/08/19 05:47:26;;;;;;;5.73;5.43;;;;;;;;;;5040088;28;20434;-82
2023/08/19 05:49:52;;;;;;;5.90;5.47;;;;;;;;;;5043857;28;20417;-81
2023/08/19 05:52:18;;;;;;;5.97;5.50;;;;;;;;;;5043629;28;20492;-82
2023/08/19 05:54:44;;;;;;;6.70;6.30;;;;;;;;;;5041872;28;20477;-83
2023/08/19 05:57:10;;;;;;;5.60;5.20;;;;;;;;;;5041660;28;20520;-84
2023/08/19 05:59:36;;;;;;;5.20;5.03;;;;;;;;;;5049371;28;20487;-82
2023/08/19 06:02:02;;;;;;;6.80;5.23;;;;;;;;;;5048296;28;20827;-81
2023/08/19 06:04:28;;;;;;;5.73;4.87;;;;;;;;;;5044870;28;20444;-82
2023/08/19 06:06:54;;;;;;;5.43;5.23;;;;;;;;;;5041981;28;20879;-82
2023/08/19 06:09:20;;;;;;;5.53;5.10;;;;;;;;;;5043178;28;20509;-82
2023/08/19 06:11:50;;;;;;;5.60;5.20;;;;;;;;;;5043163;28;20521;-83
2023/08/19 06:14:16;;;;;;;5.33;5.03;;;;;;;;;;5042924;28;20448;-83
2023/08/19 06:16:43;;;;;;;5.67;4.97;;;;;;;;;;5043411;28;20882;-81
2023/08/19 06:19:09;;;;;;;6.10;5.23;;;;;;;;;;5038255;28;20456;-81
2023/08/19 06:21:35;;;;;;;6.47;5.07;;;;;;;;;;5038843;28;20441;-81
2023/08/19 06:24:01;;;;;;;5.20;4.90;;;;;;;;;;5040527;28;20494;-82
2023/08/19 06:26:27;;;;;;;5.17;4.90;;;;;;;;;;5042643;28;20521;-82
2023/08/19 06:28:53;;;;;;;5.50;5.00;;;;;;;;;;5042952;28;20429;-82
2023/08/19 06:31:20;;;;;;;5.23;4.83;;;;;;;;;;5041997;28;20430;-82
2023/08/19 06:33:46;;;;;;;5.07;4.63;;;;;;;;;;5043030;28;20476;-82
2023/08/19 06:36:14;;;;;;;5.10;4.80;;;;;;;;;;5043242;28;20484;-83
2023/08/19 06:38:42;;;;;;;5.17;4.70;;;;;;;;;;5042484;28;20502;-83
2023/08/19 06:41:09;;;;;;;7.13;4.70;;;;;;;;;;5042982;28;20405;-83
2023/08/19 06:43:36;;;;;;;4.73;4.40;;;;;;;;;;5042728;28;20812;-84
2023/08/19 06:46:03;;;;;;;6.03;5.60;;;;;;;;;;5038575;28;20414;-83
2023/08/19 06:48:29;;;;;;;5.53;5.03;;;;;;;;;;5039524;28;20454;-83
2023/08/19 06:50:55;;;;;;;5.63;4.43;;;;;;;;;;5043177;28;20429;-83
2023/08/19 06:53:22;;;;;;;5.37;5.17;;;;;;;;;;5041643;28;20823;-84
2023/08/19 06:55:58;;;;;;;5.77;5.17;;;;;;;;;;5041208;28;20546;-83
2023/08/19 06:58:28;;;;;;;5.60;5.20;;;;;;;;;;5037370;28;20604;-85
2023/08/19 07:00:58;;;;;;;5.10;4.70;;;;;;;;;;5042947;28;20920;-83
2023/08/19 07:03:27;;;;;;;6.23;5.63;;;;;;;;;;5045985;28;20439;-86
2023/08/19 07:05:54;;;;;;;4.83;4.63;;;;;;;;;;5044628;28;20775;-86
2023/08/19 07:08:20;;;;;;;6.10;5.23;;;;;;;;;;5041655;28;20833;-86
2023/08/19 07:10:46;;;;;;;5.07;4.77;;;;;;;;;;5043234;28;20441;-86
2023/08/19 07:13:12;;;;;;;4.97;4.43;;;;;;;;;;5029648;28;20469;-86
2023/08/19 07:15:42;;;;;;;5.70;5.00;;;;;;;;;;5043794;28;20470;-86
2023/08/19 07:18:09;;;;;;;4.83;4.70;;;;;;;;;;5034681;28;20484;-86
2023/08/19 07:20:35;;;;;;;5.43;5.13;;;;;;;;;;5044260;28;20811;-85
2023/08/19 07:23:01;;;;;;;4.60;4.40;;;;;;;;;;5042695;28;20440;-84
2023/08/19 07:25:28;;;;;;;5.10;4.80;;;;;;;;;;5043656;28;20429;-85
2023/08/19 07:27:54;;;;;;;5.17;4.90;;;;;;;;;;5039598;28;20917;-86
2023/08/19 07:30:21;;;;;;;11.23;4.40;;;;;;;;;;5044952;28;20422;-86
2023/08/19 07:32:47;;;;;;;4.50;4.30;;;;;;;;;;5040871;28;20425;-87
2023/08/19 07:35:13;;;;;;;5.27;4.83;;;;;;;;;;5046715;28;20480;-87
2023/08/19 07:37:39;;;;;;;5.80;5.50;;;;;;;;;;5046488;28;20426;-87
2023/08/19 07:40:06;;;;;;;4.87;4.53;;;;;;;;;;5046909;28;20453;-87
2023/08/19 07:42:32;;;;;;;4.10;3.70;;;;;;;;;;5048059;28;20438;-86
2023/08/19 07:44:58;;;;;;;4.53;4.30;;;;;;;;;;5046517;28;20445;-86
2023/08/19 07:47:24;;;;;;;5.17;4.77;;;;;;;;;;5044845;28;20990;-85
2023/08/19 07:49:50;;;;;;;4.87;4.40;;;;;;;;;;5048867;28;20437;-84
2023/08/19 07:52:16;;;;;;;7.57;5.80;;;;;;;;;;5047400;28;20498;-85
2023/08/19 07:54:42;;;;;;;7.73;5.00;;;;;;;;;;5047772;28;20747;-85
2023/08/19 07:57:08;;;;;;;5.87;5.47;;;;;;;;;;5047373;28;20760;-87
2023/08/19 07:59:34;;;;;;;5.50;5.17;;;;;;;;;;5047693;28;20438;-86
2023/08/19 08:02:00;;;;;;;4.60;4.40;;;;;;;;;;5046788;28;20452;-87
2023/08/19 08:04:29;;;;;;;4.30;4.10;;;;;;;;;;5048530;28;20787;-88
2023/08/19 08:06:55;;;;;;;6.30;5.90;;;;;;;;;;5046220;28;20429;-88
2023/08/19 08:09:21;;;;;;;6.07;5.47;;;;;;;;;;5055255;28;20792;-87
2023/08/19 08:11:48;;;;;;;5.40;5.00;;;;;;;;;;5059197;28;20440;-86
2023/08/19 08:14:14;;;;;;;4.40;4.20;;;;;;;;;;5055958;28;20445;-84
2023/08/19 08:16:41;;;;;;;5.13;3.50;;;;;;;;;;5047822;28;20519;-85
2023/08/19 08:19:07;;;;;;;3.90;3.60;;;;;;;;;;5043274;28;20437;-82
2023/08/19 08:21:33;;;;;;;4.83;4.53;;;;;;;;;;5047222;28;20437;-86
2023/08/19 08:23:58;;;;;;;5.10;4.60;;;;;;;;;;5045292;28;20495;-87
2023/08/19 08:26:24;;;;;;;4.60;4.33;;;;;;;;;;5051195;28;20963;-87
2023/08/19 08:28:50;;;;;;;4.50;4.20;;;;;;;;;;5050140;28;20437;-89
2023/08/19 08:31:17;;;;;;;7.43;3.90;;;;;;;;;;5049846;28;20420;-88
2023/08/19 08:33:43;;;;;;;4.90;4.60;;;;;;;;;;5046097;28;20445;-88
2023/08/19 08:36:09;;;;;;;4.20;3.90;;;;;;;;;;5050220;28;20603;-88
2023/08/19 08:38:35;;;;;;;3.43;3.27;;;;;;;;;;5051949;28;20440;-86
2023/08/19 08:41:04;;;;;;;6.40;6.10;;;;;;;;;;5028396;28;20419;-86
2023/08/19 08:43:32;;;;;;;5.93;4.00;;;;;;;;;;5041516;28;20486;-86
2023/08/19 08:45:59;;;;;;;3.77;3.57;;;;;;;;;;5055145;28;20743;-82
2023/08/19 08:48:26;;;;;;;4.57;3.63;;;;;;;;;;5046772;28;20481;-84
2023/08/19 08:50:53;;;;;;;3.67;3.47;;;;;;;;;;5046261;28;20520;-84
2023/08/19 08:53:20;;;;;;;4.40;4.20;;;;;;;;;;5037704;28;20422;-83
2023/08/19 08:55:46;;;;;;;5.40;4.03;;;;;;;;;;5035811;28;21163;-83
2023/08/19 08:58:12;;;;;;;4.20;4.00;;;;;;;;;;5045878;28;20430;-83
2023/08/19 09:00:40;;;;;;;5.77;5.37;;;;;;;;;;5037951;28;21007;-82
2023/08/19 09:03:08;;;;;;;8.43;4.70;;;;;;;;;;5041267;28;20777;-84
2023/08/19 09:05:36;;;;;;;4.70;4.40;;;;;;;;;;5034970;28;20464;-84
2023/08/19 09:08:04;;;;;;;4.33;4.03;;;;;;;;;;5038320;28;20428;-84
2023/08/19 09:10:31;;;;;;;4.40;4.20;;;;;;;;;;5032341;28;20449;-83
2023/08/19 09:13:01;;;;;;;5.10;4.40;;;;;;;;;;5043738;28;20433;-82
2023/08/19 09:15:31;;;;;;;5.23;4.90;;;32.60;97.50;;;;;;5042520;28;20469;-83
2023/08/19 09:17:57;;;;;;;4.70;4.60;;;32.70;99.90;;;;;;5043306;28;20434;-82
2023/08/19 09:20:25;;;;;;;4.83;4.50;;;;;;;;;;5043484;28;20453;-83
2023/08/19 09:22:51;;;;;;;4.60;4.30;;;;;;;;;;5045026;28;20522;-84
2023/08/19 09:25:18;;;;;;;6.53;4.80;;;;;;;;;;5041941;28;21157;-83
2023/08/19 09:27:46;;;;;;;4.90;4.70;;;;;;;;;;5039214;28;20409;-81
2023/08/19 09:30:18;;;;;;;4.27;4.17;;;;;;;;;;5042426;28;20455;-82
2023/08/19 09:32:45;;;;;;;4.77;4.57;;;32.30;99.90;;;;;;5032750;28;20543;-84
2023/08/19 09:35:15;;;;;;;4.60;4.57;;;32.40;99.90;;;;;;5041741;28;20898;-85
2023/08/19 09:37:42;;;;;;;5.27;5.07;;;;;;;;;;5045267;28;20430;-85
2023/08/19 09:40:17;;;;;;;4.70;4.40;;;;;;;;;;5038447;28;20427;-83
2023/08/19 09:42:48;;;;;;;4.93;4.80;;;;;;;;;;5040003;28;20417;-83
2023/08/19 09:45:19;;;;;;;7.50;4.33;;;;;;;;;;5042983;28;20429;-81
2023/08/19 09:47:47;;;;;;;5.07;4.67;;;;;;;;;;5036497;28;20459;-84
2023/08/19 09:50:14;;;;;;;4.93;4.73;;;;;;;;;;5043228;28;20928;-84
2023/08/19 09:52:40;;;;;;;5.20;5.00;;;32.70;99.90;;;;;;5043004;28;20437;-84
2023/08/19 09:55:07;;;;;;;4.73;4.53;;;;;;;;;;5043163;28;20469;-81
2023/08/19 09:57:34;;;;;;;5.37;5.17;;;;;;;;;;5041954;28;20191;-81
2023/08/19 10:00:03;;;;;;;5.17;4.87;;;;;;;;;;5041569;28;20432;-82
2023/08/19 10:02:30;;;;;;;5.43;5.10;;;;;;;;;;5040939;28;20465;-82
2023/08/19 10:04:58;;;;;;;5.40;5.10;;;;;;;;;;5040737;28;20499;-82
2023/08/19 10:07:30;;;;;;;5.50;4.73;;;;;;;;;;5042934;28;20651;-81
2023/08/19 10:09:58;;;;;;;5.83;5.53;;;;;;;;;;5025610;28;20443;-81
2023/08/19 10:12:28;;;;;;;5.23;5.03;;;32.90;99.90;;;;;;5041078;28;20827;-83
2023/08/19 10:14:57;;;;;;;5.00;4.70;;;;;;;;;;5042394;28;20903;-82
2023/08/19 10:17:28;;;;;;;4.13;3.93;;;;;;;;;;5042758;28;20421;-82
2023/08/19 10:20:00;;;;;;;4.97;4.70;;;;;;;;;;5042463;28;20936;-81
2023/08/19 10:22:30;;;;;;;5.40;5.00;;;;;;;;;;5042500;28;20684;-81
2023/08/19 10:24:57;;;;;;;13.20;12.27;;;;;;;;;;5036113;28;20438;-81
2023/08/19 10:27:23;;;;;;;14.30;13.20;;;;;;;;;;5040153;28;20991;-80
2023/08/19 10:29:56;;;;;;;4.60;4.33;;;;;;;;;;5039841;28;20513;-82
2023/08/19 10:32:26;;;;;;;5.73;5.50;;;;;;;;;;5037220;28;20425;-82
2023/08/19 10:35:00;;;;;;;4.50;4.20;;;;;;;;;;5038943;28;20508;-82
2023/08/19 10:37:30;;;;;;;5.27;4.83;;;;;;;;;;5040034;28;20955;-84
2023/08/19 10:40:07;;;;;;;6.57;5.30;;;;;;;;;;5049450;28;20491;-84
2023/08/19 10:42:33;;;;;;;5.40;5.03;;;;;;;;;;5044989;28;20432;-83
2023/08/19 10:44:59;;;;;;;5.50;5.13;;;;;;;;;;5046430;28;20434;-85
2023/08/19 10:47:25;;;;;;;6.20;5.90;;;;;;;;;;5048730;28;20528;-83
2023/08/19 10:49:51;;;;;;;5.50;5.10;;;;;;;;;;5043436;28;20544;-82
2023/08/19 10:52:20;;;;;;;5.10;5.00;;;;;;;;;;5045661;28;21062;-84
2023/08/19 10:54:47;;;;;;;6.03;5.77;;;;;;;;;;5044621;28;20441;-82
2023/08/19 10:57:25;;;;;;;5.70;5.47;;;;;;;;;;5046439;28;20682;-83
2023/08/19 10:59:58;;;;;;;9.83;6.77;;;;;;;;;;5048696;28;20433;-83
2023/08/19 11:02:28;;;;;;;6.17;5.77;;;;;;;;;;5053541;28;20505;-85
2023/08/19 11:04:54;;;;;;;6.70;6.30;;;;;;;;;;5042696;28;20591;-74
2023/08/19 11:07:24;;;;;;;6.67;6.07;;;;;;;;;;5040553;28;20425;-77
2023/08/19 11:09:56;;;;;;;6.30;6.00;;;;;;;;;;5051185;28;20426;-85
2023/08/19 11:12:26;;;;;;;6.90;6.50;;;;;;;;;;5049205;28;20437;-84
2023/08/19 11:14:55;;;;;;;7.03;6.73;;;;;;;;;;5045987;28;20429;-80
2023/08/19 11:17:49;;;;;;;6.93;6.50;;;33.70;99.90;;;;;;5047258;28;20579;-81
2023/08/19 11:20:15;;;;;;;8.50;7.70;;;33.70;99.90;;;;;;5045151;28;20421;-80
2023/08/19 11:22:45;;;;;;;7.83;7.20;;;33.60;99.90;;;;;;5057947;28;20456;-82
2023/08/19 11:25:12;;;;;;;7.77;7.00;;;33.30;99.90;;;;;;5040445;28;20425;-82
2023/08/19 11:27:38;;;;;;;7.63;7.13;;;32.70;99.90;;;;;;5043947;28;20430;-81
2023/08/19 11:30:06;;;;;;;8.50;7.87;;;32.30;99.90;;;;;;5045586;28;20444;-82
2023/08/19 11:32:32;;;;;;;9.47;8.57;;;32.00;99.90;;;;;;5038111;28;20542;-82
2023/08/19 11:34:57;;;;;;;10.40;9.23;;;31.60;99.90;;;;;;5043271;28;20948;-82
2023/08/19 11:37:23;;;;;;;8.90;8.30;;;31.00;99.90;;;;;;5043788;28;20223;-83
2023/08/19 11:39:48;;;;;;;9.40;8.90;;;30.60;99.90;;;;;;5049662;28;20229;-80
2023/08/19 11:42:14;;;;;;;10.87;10.07;;;30.10;99.90;;;;;;5050455;28;20198;-81
2023/08/19 11:44:44;;;;;;;9.53;8.83;;;;;;;;;;5048606;28;20313;-83
2023/08/19 11:47:11;;;;;;;11.17;10.20;;;;;;;;;;5046097;28;20175;-84
2023/08/19 11:49:37;;;;;;;12.30;11.20;;;;;;;;;;5040341;28;20882;-82
2023/08/19 11:52:03;;;;;;;10.93;9.93;;;;;;;;;;5045060;28;20441;-83
2023/08/19 11:54:29;;;;;;;11.17;10.40;;;;;;;;;;5046740;28;20940;-83
2023/08/19 11:56:59;;;;;;;11.77;10.33;;;;;;;;;;5046184;28;20675;-84
2023/08/19 11:59:32;;;;;;;10.63;9.90;;;;;;;;;;5046764;28;20481;-83
2023/08/19 12:01:59;;;;;;;10.17;9.67;;;;;;;;;;5045953;28;20453;-82
2023/08/19 12:04:25;;;;;;;10.63;9.63;;;;;;;;;;5054219;28;20495;-86
2023/08/19 12:06:51;;;;;;;9.23;8.47;;;;;;;;;;5059619;28;20449;-83
2023/08/19 12:09:31;;;;;;;10.53;10.00;;;;;;;;;;5036873;28;20473;-82
2023/08/19 12:12:23;;;;;;;9.77;9.13;;;;;;;;;;5046903;28;20428;-81
2023/08/19 12:14:49;;;;;;;10.97;10.30;;;;;;;;;;5044453;28;20442;-82
2023/08/19 12:17:17;;;;;;;12.13;11.23;;;;;;;;;;5047383;28;20514;-84
2023/08/19 12:19:42;;;;;;;10.37;9.73;;;;;;;;;;5048522;28;20441;-83
2023/08/19 12:22:09;;;;;;;12.20;11.00;;;;;;;;;;5046387;28;20515;-81
2023/08/19 12:24:35;;;;;;;12.27;11.20;;;;;;;;;;5044633;28;20560;-83
2023/08/19 12:27:01;;;;;;;10.87;10.13;;;;;;;;;;5047536;28;20446;-82
2023/08/19 12:29:27;;;;;;;11.60;10.90;;;;;;;;;;5048067;28;20783;-83
2023/08/19 12:31:56;;;;;;;11.67;10.90;;;;;;;;;;5046234;28;20478;-84
2023/08/19 12:34:22;;;;;;;12.80;11.97;;;;;;;;;;5048237;28;20647;-85
2023/08/19 12:36:48;;;;;;;14.10;13.13;;;;;;;;;;5044574;28;20564;-83
2023/08/19 12:39:14;;;;;;;13.50;12.60;;;;;;;;;;5047360;28;20495;-81
2023/08/19 12:41:43;;;;;;;12.47;11.70;;;;;;;;;;5043855;28;20839;-83
2023/08/19 12:44:09;;;;;;;16.67;15.40;;;;;;;;;;5044875;28;20457;-83
2023/08/19 12:46:42;;;;;;;12.80;12.00;;;;;;;;;;5045639;28;20409;-81
2023/08/19 12:49:09;;;;;;;12.93;11.77;;;;;;;;;;5041106;28;20649;-81
2023/08/19 12:51:35;;;;;;;12.07;11.13;;;;;;;;;;5046571;28;20414;-81
2023/08/19 12:54:01;;;;;;;12.90;12.00;;;;;;;;;;5042542;28;20458;-81
2023/08/19 12:56:26;;;;;;;12.27;11.60;;;;;;;;;;5029533;28;20535;-82
2023/08/19 12:58:53;;;;;;;11.70;10.70;;;;;;;;;;5036276;28;20438;-82
2023/08/19 13:01:20;;;;;;;12.90;11.63;;;;;;;;;;5047371;28;20814;-80
2023/08/19 13:03:47;;;;;;;12.27;11.47;;;;;;;;;;5037531;28;20572;-82
2023/08/19 13:06:13;;;;;;;13.17;12.37;;;;;;;;;;5038607;28;20433;-82
2023/08/19 13:08:39;;;;;;;13.33;12.43;;;;;;;;;;5039910;28;20528;-82
2023/08/19 13:11:05;;;;;;;12.23;11.57;;;;;;;;;;5046031;28;20684;-82
2023/08/19 13:13:33;;;;;;;12.83;12.07;;;;;;;;;;5048826;28;20531;-81
2023/08/19 13:15:59;;;;;;;13.80;12.73;;;;;;;;;;5046126;28;20778;-81
2023/08/19 13:18:26;;;;;;;14.70;13.90;;;;;;;;;;5045332;28;20429;-79
2023/08/19 13:20:52;;;;;;;14.43;13.13;;;;;;;;;;5043055;28;20568;-82
2023/08/19 13:23:18;;;;;;;14.80;13.70;;;;;;;;;;5044578;28;20517;-80
2023/08/19 13:25:44;;;;;;;15.57;14.53;;;;;;;;;;5042515;28;20886;-82
2023/08/19 13:28:10;;;;;;;15.27;14.00;;;;;;;;;;5048322;28;20448;-83
2023/08/19 13:30:36;;;;;;;15.17;14.00;;;;;;;;;;5040266;28;20510;-83
2023/08/19 13:33:03;;;;;;;15.50;14.50;;;;;;;;;;5038992;28;20429;-81
2023/08/19 13:35:30;;;;;;;14.43;13.30;;;;;;;;;;5044039;28;20896;-81
2023/08/19 13:37:57;;;;;;;14.10;13.20;;;28.50;99.90;;;;;;5043677;28;20428;-82
2023/08/19 13:40:23;;;;;;;16.63;15.33;;;28.60;99.90;;;;;;5041270;28;20442;-80
2023/08/19 13:42:48;;;;;;;15.77;14.93;;;28.50;99.90;;;;;;5043588;28;20971;-82
2023/08/19 13:45:15;;;;;;;15.70;14.60;;;;;;;;;;5043410;28;20495;-82
2023/08/19 13:47:42;;;;;;;16.47;15.37;;;;;;;;;;5042567;28;20261;-81
2023/08/19 13:50:11;;;;;;;15.93;14.83;;;;;;;;;;5043537;28;20434;-82
2023/08/19 13:52:37;;;;;;;16.87;15.77;;;;;;;;;;5043378;28;20425;-82
2023/08/19 13:55:03;;;;;;;16.30;15.23;;;;;;;;;;5038968;28;20450;-82
2023/08/19 13:57:29;;;;;;;13.13;12.23;;;;;;;;;;5043345;28;20468;-82
2023/08/19 13:59:55;;;;;;;14.63;13.63;;;;;;;;;;5043118;28;20438;-82
2023/08/19 14:02:21;;;;;;;15.30;14.03;;;;;;;;;;5043227;28;20449;-81
2023/08/19 14:04:47;;;;;;;14.73;13.63;;;;;;;;;;5043077;28;20444;-82
2023/08/19 14:07:13;;;;;;;14.73;13.90;;;;;;;;;;5042895;28;21055;-83
2023/08/19 14:09:39;;;;;;;12.90;12.20;;;;;;;;;;5046079;28;20483;-82
2023/08/19 14:12:05;;;;;;;11.93;10.87;;;;;;;;;;5054890;28;20846;-89
2023/08/19 14:14:32;;;;;;;11.97;11.37;;;;;;;;;;5057693;28;20441;-87
2023/08/19 14:16:58;;;;;;;13.20;11.20;;;26.60;99.90;;;;;;5047491;28;20472;-87
2023/08/19 14:19:23;;;;;;;12.90;12.10;;;26.50;99.90;;;;;;5052398;28;20465;-89
2023/08/19 14:21:52;;;;;;;14.53;13.43;;;26.20;99.90;;;;;;5058252;28;20199;-89
2023/08/19 14:24:21;;;;;;;13.60;12.67;;;;;;;;;;5051435;28;20203;-88
2023/08/19 14:26:48;;;;;;;13.70;13.00;;;;;;;;;;5055497;28;20623;-86
2023/08/19 14:29:14;;;;;;;12.83;12.13;;;;;;;;;;5062984;28;20971;-80
2023/08/19 14:31:40;;;;;;;13.40;12.60;;;;;;;;;;5057916;28;20448;-89
2023/08/19 14:34:06;;;;;;;14.43;13.53;;;;;;;;;;5067287;28;20496;-88
2023/08/19 14:36:32;;;;;;;15.47;14.37;;;25.60;99.90;;;;;;5060126;28;20508;-86
2023/08/19 14:38:58;;;;;;;15.90;14.70;;;;;;;;;;5045035;28;20441;-80
2023/08/19 14:41:24;;;;;;;40.57;37.13;;;;;;;;;;5050584;28;20445;-84
2023/08/19 14:43:50;;;;;;;17.80;16.40;;;;;;;;;;5059850;28;20843;-85
2023/08/19 14:46:18;;;;;;;17.00;15.80;;;;;;;;;;5069222;28;20429;-83
2023/08/19 14:48:44;;;;;;;16.73;15.50;;;;;;;;;;5061291;28;20464;-82
2023/08/19 14:51:10;;;;;;;20.40;16.67;;;;;;;;;;5058110;28;20955;-85
2023/08/19 14:53:38;;;;;;;22.23;20.53;;;;;;;;;;5062783;28;20905;-80
2023/08/19 14:56:04;;;;;;;18.77;17.33;;;;;;;;;;5044337;28;20717;-80
2023/08/19 14:58:30;;;;;;;17.97;16.57;;;;;;;;;;5046825;28;20499;-79
2023/08/19 15:00:55;;;;;;;20.13;18.47;;;;;;;;;;5048339;28;20458;-81
2023/08/19 15:03:21;;;;;;;19.37;17.77;;;;;;;;;;5052914;28;20461;-78
2023/08/19 15:05:47;;;;;;;18.83;17.37;;;;;;;;;;5058222;28;20433;-81
2023/08/19 15:08:13;;;;;;;19.37;17.83;;;;;;;;;;5056899;28;20974;-81
2023/08/19 15:10:39;;;;;;;19.90;18.30;;;;;;;;;;5057445;28;20460;-80
2023/08/19 15:13:05;;;;;;;19.17;17.47;;;;;;;;;;5054690;28;20936;-80
2023/08/19 15:15:31;;;;;;;17.77;16.60;;;;;;;;;;5050700;28;20441;-81